Time;durP1;ratioP1;P1;durP2;ratioP2;P2;SDS_P1;SDS_P2;PMS_P1;PMS_P2;Temp;Humidity;BMP_temperature;BMP_pressure;BME280_temperature;BME280_humidity;BME280_pressure;Samples;Min_cycle;Max_cycle;Signal;HPM_P1;HPM_P2
2022/01/26 00:06:41;;;;;;;65.90;23.40;;;;;;;-0.19;100.00;100250.19;5023818;28;20035;-76
2022/01/26 00:09:08;;;;;;;73.45;24.73;;;;;;;-0.56;100.00;100186.09;5017465;28;20029;-77
2022/01/26 00:11:35;;;;;;;67.72;22.55;;;;;;;-0.06;100.00;100241.31;5017832;28;20029;-76
2022/01/26 00:14:02;;;;;;;68.32;23.63;;;;;;;0.01;100.00;100265.72;5021757;28;20379;-76
2022/01/26 00:16:37;;;;;;;66.45;24.02;;;;;;;-0.03;100.00;100278.38;5030902;28;20386;-78
2022/01/26 00:19:05;;;;;;;66.45;22.42;;;;;;;-0.11;100.00;100279.81;5025370;28;20033;-76
2022/01/26 00:21:44;;;;;;;69.38;22.85;;;;;;;-0.36;100.00;100259.25;5018856;28;20076;-77
2022/01/26 00:27:04;;;;;;;75.78;24.98;;;;;;;-0.39;100.00;100260.31;5029705;28;20037;-76
2022/01/26 00:29:32;;;;;;;66.53;23.33;;;;;;;-0.22;100.00;100284.00;5020526;28;20470;-76
2022/01/26 00:40:40;;;;;;;68.63;21.83;;;;;;;-0.22;100.00;100260.06;5018991;28;20449;-76
2022/01/26 00:43:23;;;;;;;69.55;22.48;;;;;;;-0.20;100.00;100275.94;5025742;28;20025;-76
2022/01/26 00:45:54;;;;;;;64.53;22.98;;;;;;;-0.21;100.00;100260.91;5018316;28;20422;-75
2022/01/26 00:48:20;;;;;;;75.45;24.38;;;;;;;-0.31;100.00;100255.34;5029630;28;20057;-78
2022/01/26 00:50:51;;;;;;;76.63;24.85;;;;;;;-0.17;100.00;100261.59;5028085;28;20045;-76
2022/01/26 00:53:17;;;;;;;77.07;25.45;;;;;;;-0.22;100.00;100248.59;5021204;28;20014;-76
2022/01/26 00:55:42;;;;;;;77.68;24.92;;;;;;;-0.23;100.00;100231.78;5029203;28;20041;-76
2022/01/26 00:58:08;;;;;;;75.95;24.40;;;;;;;-0.12;100.00;100251.50;5045604;28;20029;-77
2022/01/26 01:00:33;;;;;;;73.95;22.90;;;;;;;-0.40;100.00;100223.19;5029810;28;20033;-77
2022/01/26 01:03:01;;;;;;;72.93;24.23;;;;;;;-0.60;100.00;100217.34;5022354;28;20029;-76
2022/01/26 01:05:41;;;;;;;76.05;23.77;;;;;;;-0.48;100.00;100219.19;5033651;28;20036;-76
2022/01/26 01:08:12;;;;;;;86.80;24.60;;;;;;;-0.52;100.00;100200.91;5030183;28;20025;-76
2022/01/26 01:10:39;;;;;;;81.03;24.88;;;;;;;-0.54;100.00;100229.38;5026955;28;20120;-77
2022/01/26 01:13:07;;;;;;;83.55;24.15;;;;;;;-0.51;100.00;100232.69;5026197;28;20491;-76
2022/01/26 01:15:33;;;;;;;80.00;25.55;;;;;;;-0.32;100.00;100256.28;5015250;28;20025;-76
2022/01/26 01:18:11;;;;;;;76.82;24.63;;;;;;;-0.41;100.00;100240.94;5016074;28;20526;-77
2022/01/26 01:24:01;;;;;;;81.15;24.02;;;;;;;-0.28;100.00;100233.03;5021598;28;20033;-76
2022/01/26 01:31:40;;;;;;;77.18;24.52;;;;;;;0.05;100.00;100277.84;5030032;28;20062;-77
2022/01/26 01:33:59;;;;;;;84.07;24.27;;;;;;;0.06;100.00;100268.09;5025930;28;21483;-77
2022/01/26 01:36:25;;;;;;;74.93;25.13;;;;;;;-0.09;100.00;100235.34;5023281;28;20037;-78
2022/01/26 01:38:50;;;;;;;90.60;26.02;;;;;;;0.09;100.00;100270.53;5027191;28;20029;-76
2022/01/26 01:41:16;;;;;;;87.15;26.85;;;;;;;-0.06;100.00;100248.44;5018959;28;20083;-77
2022/01/26 01:43:41;;;;;;;81.50;27.42;;;;;;;-0.12;100.00;100244.38;5027534;28;20028;-77
2022/01/26 01:46:07;;;;;;;84.55;26.98;;;;;;;-0.19;100.00;100236.88;5023082;28;20021;-76
2022/01/26 01:48:33;;;;;;;95.57;27.02;;;;;;;0.05;100.00;100266.34;5033298;28;20032;-77
2022/01/26 01:51:04;;;;;;;84.53;25.17;;;;;;;-0.22;100.00;100224.66;5031598;28;20028;-76
2022/01/26 01:53:38;;;;;;;90.28;26.15;;;;;;;-0.31;100.00;100204.84;5022881;28;20080;-77
2022/01/26 01:56:05;;;;;;;97.57;26.80;;;;;;;-1.01;100.00;100090.63;5015482;28;20057;-77
2022/01/26 01:58:30;;;;;;;84.10;25.80;;;;;;;-0.31;100.00;100209.31;5015396;28;20026;-78
2022/01/26 02:00:56;;;;;;;79.60;24.80;;;;;;;-0.06;100.00;100273.22;5028039;28;20091;-76
2022/01/26 02:03:22;;;;;;;82.72;24.05;;;;;;;-0.28;100.00;100231.22;5031627;28;20041;-76
2022/01/26 02:05:48;;;;;;;78.13;24.55;;;;;;;-0.25;100.00;100230.16;5033439;28;20105;-76
2022/01/26 02:08:13;;;;;;;80.13;24.42;;;;;;;0.03;100.00;100261.16;5029271;28;20117;-76
2022/01/26 02:10:39;;;;;;;75.82;23.30;;;;;;;-0.34;100.00;100202.38;5022715;28;20037;-77
2022/01/26 02:13:14;;;;;;;70.93;22.83;;;;;;;-0.07;100.00;100246.75;5033810;28;20018;-76
2022/01/26 02:15:48;;;;;;;71.07;21.63;;;;;;;-0.12;100.00;100238.22;5027269;28;20025;-76
2022/01/26 02:51:17;;;;;;;61.67;19.85;;;;;;;-0.24;100.00;100240.72;5027618;28;20037;-75
2022/01/26 02:56:18;;;;;;;51.97;17.67;;;;;;;-0.30;100.00;100225.13;5029792;28;20059;-76
2022/01/26 02:59:03;;;;;;;53.63;17.35;;;;;;;-0.20;100.00;100238.69;5016104;28;20067;-76
2022/01/26 03:06:51;;;;;;;54.15;16.90;;;;;;;-0.34;100.00;100226.31;5019290;28;20079;-77
2022/01/26 03:09:22;;;;;;;53.42;17.27;;;;;;;-0.40;100.00;100231.16;5026820;28;20026;-77
2022/01/26 03:11:48;;;;;;;46.17;15.95;;;;;;;-0.25;100.00;100236.34;5017488;28;20032;-77
2022/01/26 03:14:30;;;;;;;44.72;16.27;;;;;;;-0.42;100.00;100225.06;5027351;28;20588;-77
2022/01/26 03:17:54;;;;;;;45.92;15.93;;;;;;;-0.34;100.00;100247.59;5025554;28;20021;-77
2022/01/26 03:19:48;;;;;;;46.28;16.92;;;;;;;-0.38;100.00;100235.41;5015701;28;20087;-76
2022/01/26 03:28:09;;;;;;;51.35;17.58;;;;;;;-0.20;100.00;100264.44;5022566;28;20479;-76
2022/01/26 03:35:47;;;;;;;54.58;17.38;;;;;;;-0.38;100.00;100262.00;5021784;28;20072;-77
2022/01/26 03:38:23;;;;;;;48.53;17.10;;;;;;;-0.36;100.00;100252.13;5032078;28;20029;-76
2022/01/26 03:40:59;;;;;;;58.47;18.02;;;;;;;-0.56;100.00;100215.31;5015448;28;20481;-77
2022/01/26 03:43:25;;;;;;;55.35;17.20;;;;;;;-0.40;100.00;100233.81;5024668;28;20049;-77
2022/01/26 03:45:50;;;;;;;53.67;17.45;;;;;;;-0.42;100.00;100244.53;5034670;28;20022;-76
2022/01/26 03:48:15;;;;;;;58.00;19.30;;;;;;;-0.34;100.00;100263.53;5033658;28;20394;-79
2022/01/26 03:50:40;;;;;;;54.58;18.05;;;;;;;-0.65;100.00;100205.28;5023500;28;20072;-78
2022/01/26 03:53:06;;;;;;;57.22;17.95;;;;;;;-0.53;100.00;100220.44;5020968;28;20490;-76
2022/01/26 03:55:31;;;;;;;59.10;18.80;;;;;;;-0.75;100.00;100189.91;5021308;28;20029;-76
2022/01/26 03:57:56;;;;;;;55.35;18.92;;;;;;;-0.30;100.00;100269.50;5022970;28;20021;-79
2022/01/26 04:00:22;;;;;;;68.18;20.65;;;;;;;-0.68;100.00;100209.84;5019613;28;20030;-75
2022/01/26 04:02:48;;;;;;;53.92;17.55;;;;;;;-0.67;100.00;100229.31;5034148;28;20104;-77
2022/01/26 04:05:13;;;;;;;59.25;19.20;;;;;;;-0.39;100.00;100264.75;5020017;28;20021;-77
2022/01/26 04:07:40;;;;;;;59.05;17.33;;;;;;;-0.59;100.00;100236.78;5011967;28;20468;-76
2022/01/26 04:10:17;;;;;;;62.65;17.63;;;;;;;-0.41;100.00;100254.22;5016389;28;20018;-76
2022/01/26 04:12:43;;;;;;;50.33;16.92;;;;;;;-0.33;100.00;100245.75;5030753;28;20148;-77
2022/01/26 04:15:19;;;;;;;59.17;18.08;;;;;;;-0.45;100.00;100231.44;5027308;28;20129;-75
2022/01/26 04:17:44;;;;;;;52.97;16.35;;;;;;;-0.52;100.00;100227.50;5023324;28;20112;-76
2022/01/26 04:20:11;;;;;;;59.03;17.60;;;;;;;-0.54;100.00;100221.41;5029533;28;20120;-76
2022/01/26 04:22:49;;;;;;;55.35;16.92;;;;;;;-0.65;100.00;100195.50;5022068;28;20076;-76
2022/01/26 04:25:19;;;;;;;51.92;16.42;;;;;;;-0.31;100.00;100247.38;5028366;28;20025;-77
2022/01/26 04:27:48;;;;;;;61.15;17.27;;;;;;;-0.96;100.00;100149.63;5026366;28;20025;-76
2022/01/26 04:30:13;;;;;;;55.45;16.17;;;;;;;-0.55;100.00;100233.84;5025883;28;20071;-76
2022/01/26 04:32:39;;;;;;;48.92;15.98;;;;;;;-0.36;100.00;100260.09;5027746;28;20029;-76
2022/01/26 04:35:06;;;;;;;60.28;18.27;;;;;;;-0.48;100.00;100228.97;5028674;28;20033;-76
2022/01/26 04:38:02;;;;;;;55.72;15.68;;;;;;;-0.52;100.00;100220.34;5023001;28;20432;-76
2022/01/26 04:40:22;;;;;;;51.78;15.38;;;;;;;-0.36;100.00;100228.22;5059237;23;20125;-75
2022/01/26 04:43:01;;;;;;;58.22;17.38;;;;;;;-0.46;100.00;100219.97;5044104;28;20489;-75
2022/01/26 04:45:27;;;;;;;50.25;15.13;;;;;;;-0.36;100.00;100245.97;5049601;28;20025;-76
2022/01/26 04:47:52;;;;;;;53.97;15.25;;;;;;;-0.46;100.00;100224.44;5049036;28;20052;-75
2022/01/26 04:50:17;;;;;;;57.15;15.98;;;;;;;-0.40;100.00;100229.34;5051291;28;20025;-76
2022/01/26 04:52:46;;;;;;;50.38;15.23;;;;;;;-0.42;100.00;100227.72;5045863;28;20401;-76
2022/01/26 04:55:12;;;;;;;56.63;16.60;;;;;;;-0.44;100.00;100214.56;5066969;28;20033;-75
2022/01/26 04:57:37;;;;;;;54.25;16.95;;;;;;;-0.35;100.00;100243.19;5064233;28;20089;-73
2022/01/26 05:00:07;;;;;;;48.05;15.20;;;;;;;-0.29;100.00;100239.28;5059945;28;20037;-77
2022/01/26 05:02:32;;;;;;;53.63;15.65;;;;;;;-0.33;100.00;100227.16;5048837;28;20045;-77
2022/01/26 05:04:58;;;;;;;54.83;15.90;;;;;;;-0.39;100.00;100223.09;5054293;28;20033;-73
2022/01/26 05:07:23;;;;;;;56.85;17.30;;;;;;;-0.59;100.00;100207.56;5063924;28;20020;-73
2022/01/26 05:09:48;;;;;;;60.53;16.42;;;;;;;-0.48;100.00;100243.13;5069396;28;20021;-76
2022/01/26 05:12:16;;;;;;;47.78;15.73;;;;;;;-0.33;100.00;100228.00;5066576;28;20013;-78
2022/01/26 05:14:43;;;;;;;51.05;14.98;;;;;;;-0.52;100.00;100223.00;5075211;28;20088;-73
2022/01/26 05:17:09;;;;;;;52.58;15.70;;;;;;;-0.65;100.00;100199.97;5066990;28;20029;-75
2022/01/26 05:19:34;;;;;;;52.33;17.10;;;;;;;-0.50;100.00;100206.94;5064904;28;20024;-75
2022/01/26 05:22:01;;;;;;;53.60;15.77;;;;;;;-0.43;100.00;100224.22;5058844;28;20056;-76
2022/01/26 05:24:26;;;;;;;56.70;16.70;;;;;;;-0.48;100.00;100221.84;5052572;28;20025;-76
2022/01/26 05:26:51;;;;;;;51.85;15.95;;;;;;;-0.49;100.00;100220.16;5053672;28;20045;-77
2022/01/26 05:29:17;;;;;;;59.22;16.67;;;;;;;-0.53;100.00;100202.69;5061666;28;20168;-72
2022/01/26 05:31:42;;;;;;;61.88;16.33;;;;;;;-0.45;100.00;100208.38;5070978;28;20033;-76
2022/01/26 05:34:07;;;;;;;56.90;17.10;;;;;;;-0.42;100.00;100209.97;5059525;28;20026;-75
2022/01/26 05:36:33;;;;;;;55.75;16.35;;;;;;;-0.30;100.00;100234.94;5069890;28;20025;-73
2022/01/26 05:38:58;;;;;;;59.38;17.67;;;;;;;-0.36;100.00;100238.84;5057342;28;20025;-75
2022/01/26 05:41:23;;;;;;;51.70;15.68;;;;;;;-0.57;100.00;100221.59;5065828;28;20055;-78
2022/01/26 05:43:49;;;;;;;46.33;15.95;;;;;;;-0.53;100.00;100215.97;5066192;28;20033;-75
2022/01/26 05:46:23;;;;;;;49.92;15.95;;;;;;;-0.34;100.00;100247.59;5045202;28;20550;-74
2022/01/26 05:48:49;;;;;;;51.20;15.75;;;;;;;-0.44;100.00;100227.84;5046967;28;20376;-73
2022/01/26 05:51:16;;;;;;;51.63;17.02;;;;;;;-0.57;100.00;100213.63;5048050;28;20402;-73
2022/01/26 05:53:41;;;;;;;52.42;16.83;;;;;;;-0.36;100.00;100248.63;5054055;28;20437;-74
2022/01/26 05:56:07;;;;;;;55.20;16.55;;;;;;;-0.39;100.00;100231.06;5037968;28;20108;-75
2022/01/26 05:58:33;;;;;;;44.45;15.45;;;;;;;-0.36;100.00;100238.00;5052920;28;20032;-75
2022/01/26 06:01:00;;;;;;;50.85;16.02;;;;;;;-0.32;100.00;100250.13;5044478;28;20071;-77
2022/01/26 06:03:26;;;;;;;49.83;16.35;;;;;;;-0.36;100.00;100244.16;5052832;28;20017;-76
2022/01/26 06:05:54;;;;;;;53.28;15.43;;;;;;;-0.39;100.00;100239.03;5065709;28;20029;-73
2022/01/26 06:08:23;;;;;;;47.03;15.95;;;;;;;-0.37;100.00;100238.94;5047817;28;20106;-72
2022/01/26 06:10:49;;;;;;;53.63;16.75;;;;;;;-0.45;100.00;100219.03;5047802;28;20040;-75
2022/01/26 06:13:14;;;;;;;62.85;16.98;;;;;;;-0.52;100.00;100215.03;5051568;28;20037;-75
2022/01/26 06:15:40;;;;;;;61.55;16.83;;;;;;;-0.42;100.00;100209.13;5051631;28;20172;-76
2022/01/26 06:18:05;;;;;;;64.78;16.52;;;;;;;-0.47;100.00;100204.97;5049035;28;20048;-73
2022/01/26 06:20:31;;;;;;;59.05;18.33;;;;;;;-0.43;100.00;100200.28;5047051;28;20102;-77
2022/01/26 06:22:56;;;;;;;61.53;17.20;;;;;;;-0.47;100.00;100212.09;5049076;28;20161;-76
2022/01/26 06:25:22;;;;;;;66.40;17.80;;;;;;;-0.54;100.00;100208.13;5048225;28;20109;-74
2022/01/26 06:27:51;;;;;;;55.90;16.67;;;;;;;-0.49;100.00;100206.03;5048950;28;20079;-76
2022/01/26 06:30:16;;;;;;;;;;;;;;;-0.42;100.00;100212.63;5046505;28;20025;-74
2022/01/26 06:32:42;;;;;;;60.45;16.30;;;;;;;-0.59;100.00;100211.06;5049813;28;19927;-76
2022/01/26 06:35:08;;;;;;;62.28;16.45;;;;;;;-0.47;100.00;100223.56;5051466;28;20044;-75
2022/01/26 06:37:34;;;;;;;53.65;15.52;;;;;;;-0.52;100.00;100203.56;5049656;28;20024;-76
2022/01/26 06:39:59;;;;;;;60.25;16.67;;;;;;;-0.58;100.00;100202.13;5052172;28;20029;-74
2022/01/26 06:42:30;;;;;;;60.30;15.60;;;;;;;-0.72;100.00;100184.41;5050086;28;20038;-74
2022/01/26 06:49:53;;;;;;;48.95;15.30;;;;;;;-0.58;100.00;100235.81;5050074;28;20555;-77
2022/01/26 06:52:19;;;;;;;55.75;15.10;;;;;;;-0.59;100.00;100234.13;5052095;28;20032;-75
2022/01/26 06:54:44;;;;;;;59.30;14.90;;;;;;;-0.70;100.00;100214.41;5047383;28;20029;-70
2022/01/26 06:57:10;;;;;;;59.97;15.85;;;;;;;-0.59;100.00;100219.03;5050269;28;20059;-74
2022/01/26 06:59:36;;;;;;;63.13;15.82;;;;;;;-0.53;100.00;100234.59;5048463;28;20021;-73
2022/01/26 07:02:01;;;;;;;53.50;16.35;;;;;;;-0.51;100.00;100238.00;5039475;28;20049;-73
2022/01/26 07:04:26;;;;;;;60.45;16.85;;;;;;;-0.57;100.00;100238.41;5042282;28;20100;-73
2022/01/26 07:06:53;;;;;;;53.22;14.30;;;;;;;-0.50;100.00;100249.47;5044925;28;20025;-75
2022/01/26 07:09:19;;;;;;;41.78;15.10;;;;;;;-0.60;100.00;100235.06;5042957;28;20036;-74
2022/01/26 07:11:45;;;;;;;50.92;16.80;;;;;;;-0.52;100.00;100254.06;5050472;28;20029;-73
2022/01/26 07:14:11;;;;;;;51.67;15.93;;;;;;;-0.76;100.00;100228.09;5049332;28;20053;-75
2022/01/26 07:22:05;;;;;;;42.92;15.80;;;;;;;-0.56;100.00;100258.69;5043978;28;20090;-79
2022/01/26 07:24:31;;;;;;;50.80;15.82;;;;;;;-0.59;100.00;100260.72;5048628;28;20025;-75
2022/01/26 07:26:56;;;;;;;39.33;15.43;;;;;;;-0.89;100.00;100241.28;5050023;28;20021;-77
2022/01/26 07:29:23;;;;;;;44.63;15.15;;;;;;;-0.68;100.00;100263.00;5047981;28;20039;-77
2022/01/26 07:31:49;;;;;;;54.70;16.77;;;;;;;-0.61;100.00;100276.75;5047069;28;20409;-77
2022/01/26 07:34:16;;;;;;;55.20;16.48;;;;;;;-0.56;100.00;100277.31;5051283;28;20033;-77
2022/01/26 07:36:44;;;;;;;47.33;16.63;;;;;;;-0.83;100.00;100250.66;5050142;28;20534;-74
2022/01/26 07:39:14;;;;;;;52.83;17.13;;;;;;;-0.61;100.00;100273.25;5047035;28;20020;-73
2022/01/26 07:41:39;;;;;;;45.65;15.10;;;;;;;-0.67;100.00;100266.50;5044763;28;20028;-73
2022/01/26 07:44:06;;;;;;;48.28;15.65;;;;;;;-0.57;100.00;100270.31;5051031;28;20026;-72
2022/01/26 07:46:31;;;;;;;48.10;15.57;;;;;;;-0.59;100.00;100276.66;5043232;28;20040;-72
2022/01/26 07:48:57;;;;;;;41.25;14.70;;;;;;;-0.52;100.00;100285.97;5043382;28;20025;-72
2022/01/26 07:51:22;;;;;;;38.67;15.50;;;;;;;-0.60;100.00;100281.13;5040080;28;20032;-73
2022/01/26 07:53:48;;;;;;;43.20;16.30;;;;;;;-0.48;100.00;100287.47;5049282;28;20040;-78
2022/01/26 07:56:14;;;;;;;44.30;15.43;;;;;;;-0.63;100.00;100293.75;5054166;28;20467;-79
2022/01/26 07:58:41;;;;;;;56.72;16.98;;;;;;;-0.74;100.00;100281.13;5037607;28;20505;-74
2022/01/26 08:01:06;;;;;;;50.00;16.88;;;;;;;-0.45;100.00;100303.22;5051037;28;20031;-77
2022/01/26 08:03:35;;;;;;;44.90;15.00;;;;;;;-0.44;100.00;100294.31;5051632;28;20021;-75
2022/01/26 08:06:04;;;;;;;34.83;12.05;;;;;;;-0.57;100.00;100267.63;5054035;28;20056;-75
2022/01/26 08:08:30;;;;;;;45.72;15.38;;;;;;;-0.43;100.00;100284.53;5048748;28;20033;-75
2022/01/26 08:10:56;;;;;;;42.95;14.68;;;;;;;-0.48;100.00;100279.50;5038343;28;20040;-77
2022/01/26 08:13:22;;;;;;;45.67;16.15;;;;;;;-0.43;100.00;100295.16;5047845;28;20025;-75
2022/01/26 08:15:47;;;;;;;40.40;13.68;;;;;;;-0.46;100.00;100291.75;5043439;28;20036;-76
2022/01/26 08:18:13;;;;;;;42.00;13.68;;;;;;;-0.56;100.00;100274.66;5043819;28;20040;-74
2022/01/26 08:20:40;;;;;;;32.33;13.20;;;;;;;-0.31;100.00;100300.56;5046808;28;20025;-77
2022/01/26 08:23:05;;;;;;;38.67;13.52;;;;;;;-0.27;100.00;100307.38;5050603;28;20459;-73
2022/01/26 08:25:30;;;;;;;41.72;16.02;;;;;;;-0.32;100.00;100301.50;5051462;28;20025;-75
2022/01/26 08:28:07;;;;;;;39.83;14.48;;;;;;;-0.17;100.00;100312.97;5051701;28;20086;-75
2022/01/26 08:30:36;;;;;;;41.08;16.05;;;;;;;-0.34;100.00;100299.88;5046922;28;20029;-72
2022/01/26 08:33:03;;;;;;;45.45;15.15;;;;;;;-0.30;100.00;100307.56;5038827;28;20511;-75
2022/01/26 08:35:28;;;;;;;47.72;15.25;;;;;;;-0.35;100.00;100309.66;5045841;28;20023;-74
2022/01/26 08:37:54;;;;;;;47.95;17.38;;;;;;;-0.57;100.00;100298.69;5035255;28;20029;-76
2022/01/26 08:40:19;;;;;;;49.88;16.75;;;;;;;-0.52;100.00;100304.56;5054397;28;20120;-76
2022/01/26 08:42:45;;;;;;;51.00;16.52;;;;;;;-0.46;100.00;100325.44;5042394;28;20045;-74
2022/01/26 08:45:10;;;;;;;52.05;16.20;;;;;;;-0.60;100.00;100305.06;5043533;28;20029;-74
2022/01/26 08:47:35;;;;;;;52.78;16.00;;;;;;;-0.50;100.00;100310.63;5044154;28;20036;-73
2022/01/26 08:50:01;;;;;;;47.67;15.40;;;;;;;-0.50;100.00;100307.97;5039911;28;20108;-72
2022/01/26 08:52:27;;;;;;;49.40;14.75;;;;;;;-0.42;100.00;100318.97;5050826;28;20089;-77
2022/01/26 08:54:52;;;;;;;58.05;19.20;;;;;;;-0.47;100.00;100302.50;5050777;28;20124;-77
2022/01/26 08:57:18;;;;;;;50.83;15.90;;;;;;;-0.39;100.00;100325.91;5049305;28;20029;-73
2022/01/26 08:59:43;;;;;;;42.03;13.98;;;;;;;-0.52;100.00;100325.84;5046088;28;20016;-74
2022/01/26 09:02:08;;;;;;;41.00;14.10;;;;;;;-0.57;100.00;100335.91;5050183;28;20021;-75
2022/01/26 09:04:34;;;;;;;49.72;14.95;;;;;;;-0.55;100.00;100323.34;5044267;28;20168;-77
2022/01/26 09:07:01;;;;;;;50.50;15.77;;;;;;;-0.62;100.00;100316.72;5046113;28;20028;-77
2022/01/26 09:09:30;;;;;;;44.03;15.18;;;;;;;-0.46;100.00;100336.94;5041539;28;20029;-76
2022/01/26 09:11:58;;;;;;;41.90;14.38;;;;;;;-0.61;100.00;100323.75;5051931;28;20391;-76
2022/01/26 09:14:27;;;;;;;36.83;12.75;;;;;;;-0.49;100.00;100334.47;5054002;28;20036;-78
2022/01/26 09:16:54;;;;;;;35.67;12.60;;;;;;;-0.55;100.00;100334.88;5050420;28;20029;-76
2022/01/26 09:19:31;;;;;;;37.40;13.25;;;;;;;-0.46;100.00;100322.78;5041069;28;20166;-72
2022/01/26 09:22:00;;;;;;;40.00;14.63;;;;;;;-0.30;100.00;100334.16;5049918;28;20025;-78
2022/01/26 09:24:28;;;;;;;35.03;12.60;;;;;;;-0.21;100.00;100340.72;5040369;28;20052;-77
2022/01/26 09:26:53;;;;;;;41.00;13.02;;;;;;;-0.37;100.00;100313.38;5034067;28;20021;-75
2022/01/26 09:29:18;;;;;;;62.88;21.73;;;;;;;-0.28;100.00;100326.97;5044347;28;20040;-75
2022/01/26 09:31:47;;;;;;;46.33;16.50;;;;;;;-0.23;100.00;100311.56;5047582;28;20494;-76
2022/01/26 09:34:16;;;;;;;37.60;13.82;;;;;;;-0.22;100.00;100307.94;5038904;28;20025;-76
2022/01/26 09:36:43;;;;;;;36.30;14.85;;;;;;;-0.34;100.00;100289.25;5039155;28;20033;-75
2022/01/26 09:39:08;;;;;;;37.15;13.95;;;;;;;-0.36;100.00;100286.69;5056000;28;20025;-76
2022/01/26 09:41:34;;;;;;;37.70;13.15;;;;;;;-0.39;100.00;100313.50;5071818;28;20054;-76
2022/01/26 09:44:02;;;;;;;39.33;14.10;;;;;;;-0.44;100.00;100307.59;5076230;28;20029;-75
2022/01/26 09:46:29;;;;;;;44.33;14.65;;;;;;;-0.31;100.00;100300.56;5072139;28;20109;-75
2022/01/26 09:48:55;;;;;;;37.90;12.85;;;;;;;-0.41;100.00;100294.13;5071330;28;20029;-75
2022/01/26 09:51:20;;;;;;;33.97;12.90;;;;;;;-0.34;100.00;100310.53;5065322;28;20025;-75
2022/01/26 09:53:58;;;;;;;34.97;12.77;;;;;;;-0.14;100.00;100291.50;5054819;28;20026;-75
2022/01/26 09:56:23;;;;;;;30.27;11.20;;;;;;;-0.36;100.00;100277.88;5066716;28;20053;-76
2022/01/26 09:58:50;;;;;;;30.20;11.95;;;;;;;-0.29;100.00;100266.75;5056273;28;20466;-74
2022/01/26 10:01:15;;;;;;;30.73;11.18;;;;;;;-0.27;100.00;100264.81;5047145;28;20082;-74
2022/01/26 10:03:45;;;;;;;37.00;13.45;;;;;;;-0.52;100.00;100262.03;5053447;28;20099;-75
2022/01/26 10:06:24;;;;;;;33.47;12.02;;;;;;;-0.40;100.00;100269.22;5051325;28;20084;-73
2022/01/26 10:08:58;;;;;;;33.85;12.88;;;;;;;-0.24;100.00;100291.25;5049923;28;20021;-72
2022/01/26 10:17:22;;;;;;;30.02;11.88;;;;;;;-0.11;100.00;100295.75;5054341;28;20496;-75
2022/01/26 10:19:54;;;;;;;28.15;9.82;;;;;;;-0.01;98.65;100288.91;5055262;28;20029;-75
2022/01/26 10:22:34;;;;;;;28.30;10.75;;;;;;;-0.35;100.00;100293.72;5047198;28;20033;-74
2022/01/26 10:25:09;;;;;;;34.58;12.00;;;;;;;-0.73;100.00;100265.09;5035164;28;20022;-75
2022/01/26 10:27:44;;;;;;;30.38;11.82;;;;;;;-0.61;100.00;100279.41;5045936;28;20094;-76
2022/01/26 10:30:12;;;;;;;29.50;11.23;;;;;;;-0.39;100.00;100297.53;5034668;28;20029;-77
2022/01/26 10:32:39;;;;;;;30.13;11.32;;;;;;;-0.16;100.00;100308.50;5053126;28;20035;-74
2022/01/26 10:35:05;;;;;;;31.05;11.02;;;;;;;-0.12;100.00;100313.53;5038001;28;20136;-75
2022/01/26 10:37:32;;;;;;;28.58;11.52;;;;;;;-0.19;100.00;100314.03;5038044;28;20648;-74
2022/01/26 10:40:12;;;;;;;30.08;11.73;;;;;;;-0.61;100.00;100303.31;5034613;28;20029;-74
2022/01/26 10:42:38;;;;;;;36.25;12.32;;;;;;;-0.55;100.00;100291.44;5068779;23;20077;-76
2022/01/26 10:47:35;;;;;;;36.50;12.20;;;;;;;-0.65;100.00;100263.78;5036086;28;20034;-76
2022/01/26 10:50:30;;;;;;;34.28;12.38;;;;;;;-0.40;100.00;100302.94;5036720;28;20021;-76
2022/01/26 10:53:07;;;;;;;40.00;12.13;;;;;;;-0.34;100.00;100295.44;5015508;28;20028;-77
2022/01/26 10:55:35;;;;;;;35.25;11.85;;;;;;;-0.29;100.00;100314.63;4996069;28;20467;-76
2022/01/26 10:58:01;;;;;;;35.70;11.25;;;;;;;-0.28;100.00;100302.19;5012740;28;20037;-76
2022/01/26 11:00:29;;;;;;;40.08;12.90;;;;;;;-0.17;100.00;100326.28;5015664;28;20533;-77
2022/01/26 11:02:57;;;;;;;35.58;11.75;;;;;;;-0.26;100.00;100309.09;5030323;28;20028;-76
2022/01/26 11:05:23;;;;;;;31.70;11.90;;;;;;;-0.32;100.00;100292.66;5030325;28;20092;-76
2022/01/26 11:07:49;;;;;;;31.65;11.82;;;;;;;-0.54;100.00;100266.59;5016119;28;20265;-80
2022/01/26 11:10:16;;;;;;;34.13;12.25;;;;;;;-0.27;100.00;100291.41;5013158;28;20030;-79
2022/01/26 11:12:42;;;;;;;39.20;13.55;;;;;;;-0.31;100.00;100287.25;5009917;28;20451;-79
2022/01/26 11:15:16;;;;;;;35.50;12.10;;;;;;;-0.13;100.00;100300.31;5009735;28;20026;-78
2022/01/26 11:17:45;;;;;;;33.33;12.13;;;;;;;-0.05;100.00;100306.88;5004109;28;20021;-77
2022/01/26 11:20:28;;;;;;;35.50;12.45;;;;;;;-0.17;100.00;100283.72;5015183;28;20455;-78
2022/01/26 11:22:56;;;;;;;34.00;13.38;;;;;;;-0.12;100.00;100300.25;5015256;28;20117;-79
2022/01/26 11:25:24;;;;;;;38.92;13.02;;;;;;;-0.01;100.00;100313.69;5014103;28;20081;-77
2022/01/26 11:27:52;;;;;;;37.95;12.52;;;;;;;-0.27;100.00;100269.31;5015651;28;20028;-77
2022/01/26 11:30:24;;;;;;;37.25;13.20;;;;;;;-0.04;100.00;100321.03;5014851;28;20096;-77
2022/01/26 11:32:58;;;;;;;39.08;14.43;;;;;;;-0.23;100.00;100295.59;5013069;28;20505;-77
2022/01/26 11:35:27;;;;;;;41.13;14.18;;;;;;;-0.19;100.00;100319.34;5011358;28;20022;-77
2022/01/26 11:38:18;;;;;;;36.28;12.23;;;;;;;-0.23;100.00;100318.69;5006060;28;20497;-77
2022/01/26 11:46:38;;;;;;;37.40;12.18;;;;;;;-0.37;100.00;100306.25;5015039;28;20037;-77
2022/01/26 11:49:10;;;;;;;39.30;13.35;;;;;;;-0.20;100.00;100323.81;5002825;28;20017;-77
2022/01/26 11:51:49;;;;;;;39.30;12.90;;;;;;;-0.34;100.00;100291.91;5012826;28;20499;-76
2022/01/26 11:54:21;;;;;;;31.80;11.30;;;;;;;-0.67;100.00;100240.78;5012750;28;20077;-77
2022/01/26 11:56:53;;;;;;;34.22;12.63;;;;;;;-0.46;100.00;100257.19;5012327;28;20027;-80
2022/01/26 11:59:20;;;;;;;45.30;16.65;;;;;;;-0.31;100.00;100300.56;5014472;28;20033;-74
2022/01/26 12:01:54;;;;;;;40.22;14.13;;;;;;;-0.53;100.00;100258.50;5005566;28;20034;-70
2022/01/26 12:04:20;;;;;;;37.47;13.88;;;;;;;-0.55;100.00;100284.34;4998073;28;20108;-77
2022/01/26 12:06:51;;;;;;;33.47;13.07;;;;;;;-0.33;100.00;100306.94;5011799;28;20053;-72
2022/01/26 12:09:17;;;;;;;39.25;12.38;;;;;;;-0.55;100.00;100292.34;5005064;28;20472;-78
2022/01/26 12:11:50;;;;;;;37.53;13.07;;;;;;;-0.51;100.00;100308.94;4998508;28;20049;-74
2022/01/26 12:14:19;;;;;;;33.97;12.52;;;;;;;-0.72;100.00;100272.09;5014885;28;20413;-71
2022/01/26 12:16:57;;;;;;;33.10;12.65;;;;;;;-0.50;100.00;100307.97;5018685;28;20418;-80
2022/01/26 12:19:35;;;;;;;33.50;12.15;;;;;;;-0.82;100.00;100238.22;5022725;28;20053;-75
2022/01/26 12:36:15;;;;;;;36.58;12.70;;;;;;;-0.56;100.00;100281.78;5013338;28;20034;-70
2022/01/26 12:38:45;;;;;;;34.03;12.52;;;;;;;-0.40;100.00;100302.94;5015419;28;20080;-74
2022/01/26 12:43:53;;;;;;;28.08;10.77;;;;;;;-0.39;100.00;100286.91;5017837;28;20045;-74
2022/01/26 12:46:29;;;;;;;33.58;11.38;;;;;;;-0.32;100.00;100301.50;4999282;28;20074;-78
2022/01/26 12:48:59;;;;;;;31.13;11.23;;;;;;;-0.31;100.00;100305.88;5000483;28;20040;-76
2022/01/26 12:51:26;;;;;;;33.00;12.80;;;;;;;-0.44;100.00;100304.94;5013951;28;20084;-77
2022/01/26 12:53:54;;;;;;;32.75;11.85;;;;;;;-0.55;100.00;100291.44;5012050;28;20053;-75
2022/01/26 12:56:19;;;;;;;34.85;12.90;;;;;;;-0.79;100.00;100256.63;5012597;28;20046;-76
2022/01/26 12:58:44;;;;;;;32.78;13.02;;;;;;;-0.67;100.00;100280.66;5013666;28;20026;-79
2022/01/26 13:01:15;;;;;;;38.13;12.85;;;;;;;-0.50;100.00;100302.66;5008918;28;20096;-77
2022/01/26 13:03:41;;;;;;;35.72;13.20;;;;;;;-0.53;100.00;100286.91;5009961;28;20023;-84
2022/01/26 13:06:24;;;;;;;42.40;11.40;;;;;;;-0.58;100.00;100265.06;5007626;28;20018;-74